createdAt,value
2022-11-07T00:00:49.866Z,70.35
2022-11-07T00:03:19.648Z,88.28
2022-11-07T00:05:48.931Z,75.82
2022-11-07T00:08:18.103Z,81.20
2022-11-07T00:10:47.283Z,78.85
2022-11-07T00:13:16.786Z,82.72
2022-11-07T00:15:46.229Z,73.03
2022-11-07T00:18:16.105Z,86.72
2022-11-07T00:20:45.379Z,71.03
2022-11-07T00:23:14.961Z,71.65
2022-11-07T00:25:44.441Z,62.00
2022-11-07T00:28:13.678Z,64.07
2022-11-07T00:30:42.843Z,62.90
2022-11-07T00:33:12.118Z,69.35
2022-11-07T00:35:44.826Z,57.97
2022-11-07T00:38:13.990Z,76.97
2022-11-07T00:40:43.268Z,100.70
2022-11-07T00:43:12.899Z,96.57
2022-11-07T00:45:42.230Z,78.93
2022-11-07T00:48:11.407Z,65.78
2022-11-07T00:50:40.614Z,68.80
2022-11-07T00:53:10.019Z,63.03
2022-11-07T00:55:39.189Z,56.28
2022-11-07T00:58:13.409Z,45.28
2022-11-07T01:00:44.120Z,44.47
2022-11-07T01:03:34.763Z,54.47
2022-11-07T01:06:06.360Z,55.35
2022-11-07T01:08:35.580Z,46.78
2022-11-07T01:11:09.733Z,43.75
2022-11-07T01:13:39.322Z,43.45
2022-11-07T01:16:12.239Z,40.08
2022-11-07T01:18:41.705Z,40.38
2022-11-07T01:21:17.119Z,37.90
2022-11-07T01:23:49.689Z,45.92
2022-11-07T01:26:25.400Z,37.70
2022-11-07T01:28:59.655Z,36.85
2022-11-07T01:31:40.310Z,51.85
2022-11-07T01:34:15.346Z,47.22
2022-11-07T01:36:50.556Z,35.35
2022-11-07T01:39:25.505Z,38.00
2022-11-07T01:42:00.391Z,30.60
2022-11-07T01:44:41.257Z,28.80
2022-11-07T01:47:15.808Z,37.40
2022-11-07T01:53:04.663Z,37.78
2022-11-07T01:55:43.636Z,32.22
2022-11-07T01:58:12.948Z,34.55
2022-11-07T02:00:42.298Z,45.20
2022-11-07T02:03:18.618Z,30.48
2022-11-07T02:05:59.473Z,30.05
2022-11-07T02:08:33.739Z,35.05
2022-11-07T02:11:04.893Z,37.47
2022-11-07T02:13:34.849Z,36.40
2022-11-07T02:16:07.169Z,26.30
2022-11-07T02:18:41.599Z,26.88
2022-11-07T02:21:25.740Z,25.13
2022-11-07T02:24:10.281Z,32.58
2022-11-07T02:26:41.676Z,24.88
2022-11-07T02:29:13.954Z,34.35
2022-11-07T02:31:43.129Z,27.77
2022-11-07T02:34:12.438Z,27.25
2022-11-07T02:36:42.398Z,19.92
2022-11-07T02:39:11.956Z,23.98
2022-11-07T02:41:41.168Z,25.95
2022-11-07T02:44:14.167Z,19.70
2022-11-07T02:46:43.659Z,21.10
2022-11-07T02:49:12.816Z,23.95
2022-11-07T02:51:42.059Z,19.50
2022-11-07T02:54:14.011Z,26.25
2022-11-07T02:56:46.556Z,17.98
2022-11-07T02:59:15.703Z,18.77
2022-11-07T03:01:44.900Z,23.42
2022-11-07T03:04:14.087Z,22.70
2022-11-07T03:06:43.192Z,21.38
2022-11-07T03:09:12.359Z,23.15
2022-11-07T03:11:41.404Z,20.98
2022-11-07T03:14:10.528Z,20.45
2022-11-07T03:16:39.606Z,22.42
2022-11-07T03:19:09.089Z,21.98
2022-11-07T03:21:38.212Z,20.10
2022-11-07T03:24:07.768Z,25.38
2022-11-07T03:26:37.016Z,24.13
2022-11-07T03:29:07.156Z,21.92
2022-11-07T03:31:36.452Z,21.50
2022-11-07T03:34:05.814Z,35.28
2022-11-07T03:36:35.253Z,21.25
2022-11-07T03:39:04.510Z,18.45
2022-11-07T03:41:33.647Z,23.42
2022-11-07T03:44:02.804Z,24.60
2022-11-07T03:46:32.033Z,19.17
2022-11-07T03:49:01.149Z,25.58
2022-11-07T03:51:30.230Z,34.15
2022-11-07T03:53:59.352Z,21.73
2022-11-07T03:56:28.458Z,20.45
2022-11-07T03:58:57.862Z,24.25
2022-11-07T04:01:27.049Z,22.48
2022-11-07T04:03:56.477Z,20.58
2022-11-07T04:06:25.857Z,23.52
2022-11-07T04:08:54.977Z,19.38
2022-11-07T04:11:42.597Z,25.17
2022-11-07T04:14:30.029Z,16.70
2022-11-07T04:17:17.304Z,20.77
2022-11-07T04:19:52.496Z,24.70
2022-11-07T04:22:21.946Z,23.20
2022-11-07T04:24:51.409Z,17.70
2022-11-07T04:27:40.546Z,16.88
2022-11-07T04:30:21.608Z,21.10
2022-11-07T04:32:56.048Z,16.80
2022-11-07T04:35:29.036Z,21.15
2022-11-07T04:37:58.662Z,23.48
2022-11-07T04:40:29.373Z,18.83
2022-11-07T04:42:58.775Z,16.88
2022-11-07T04:45:27.983Z,23.48
2022-11-07T04:47:57.131Z,20.42
2022-11-07T04:50:26.201Z,20.38
2022-11-07T04:52:55.340Z,19.48
2022-11-07T04:55:28.383Z,24.27
2022-11-07T04:57:57.490Z,16.48
2022-11-07T05:00:27.123Z,24.35
2022-11-07T05:02:56.376Z,19.10
2022-11-07T05:05:25.549Z,19.20
2022-11-07T05:07:54.663Z,20.02
2022-11-07T05:10:30.194Z,23.67
2022-11-07T05:12:59.591Z,28.55
2022-11-07T05:15:29.342Z,22.45
2022-11-07T05:17:58.434Z,22.48
2022-11-07T05:20:39.662Z,25.30
2022-11-07T05:23:19.469Z,16.30
2022-11-07T05:25:54.831Z,20.55
2022-11-07T05:28:38.590Z,26.02
2022-11-07T05:31:13.034Z,19.23
2022-11-07T05:33:42.089Z,24.35
2022-11-07T05:36:21.543Z,17.40
2022-11-07T05:38:54.124Z,17.38
2022-11-07T05:41:24.909Z,20.45
2022-11-07T05:43:54.342Z,25.08
2022-11-07T05:46:23.478Z,69.60
2022-11-07T05:48:56.677Z,14.75
2022-11-07T05:51:29.756Z,23.17
2022-11-07T05:53:58.851Z,32.22
2022-11-07T05:56:27.908Z,18.83
2022-11-07T05:58:57.171Z,18.00
2022-11-07T06:01:26.447Z,17.52
2022-11-07T06:03:55.544Z,21.20
2022-11-07T06:06:24.692Z,21.55
2022-11-07T06:08:53.730Z,19.50
2022-11-07T06:11:22.889Z,21.33
2022-11-07T06:13:52.036Z,19.45
2022-11-07T06:16:21.191Z,20.10
2022-11-07T06:18:50.458Z,25.80
2022-11-07T06:21:19.632Z,19.38
2022-11-07T06:23:49.054Z,15.05
2022-11-07T06:26:18.257Z,20.67
2022-11-07T06:28:47.337Z,20.40
2022-11-07T06:31:16.646Z,16.73
2022-11-07T06:33:45.715Z,19.52
2022-11-07T06:36:15.225Z,22.05
2022-11-07T06:38:44.264Z,20.92
2022-11-07T06:41:16.608Z,19.02
2022-11-07T06:43:46.244Z,21.75
2022-11-07T06:46:18.275Z,14.00
2022-11-07T06:48:47.718Z,19.00
2022-11-07T06:51:16.864Z,17.65
2022-11-07T06:53:46.108Z,16.55
2022-11-07T06:56:17.472Z,22.90
2022-11-07T06:58:46.638Z,14.23
2022-11-07T07:01:16.604Z,16.58
2022-11-07T07:03:46.362Z,22.25
2022-11-07T07:06:18.242Z,24.70
2022-11-07T07:08:48.268Z,15.27
2022-11-07T07:11:18.545Z,17.20
2022-11-07T07:13:47.742Z,28.23
2022-11-07T07:16:17.200Z,17.45
2022-11-07T07:18:46.340Z,15.82
2022-11-07T07:21:16.850Z,14.05
2022-11-07T07:23:45.906Z,21.95
2022-11-07T07:26:17.945Z,24.90
2022-11-07T07:28:47.144Z,16.92
2022-11-07T07:31:16.149Z,21.40
2022-11-07T07:33:47.718Z,30.27
2022-11-07T07:36:20.813Z,13.68
2022-11-07T07:38:52.043Z,17.23
2022-11-07T07:41:21.743Z,13.57
2022-11-07T07:43:51.633Z,16.60
2022-11-07T07:46:24.871Z,19.35
2022-11-07T07:48:54.436Z,16.02
2022-11-07T07:51:26.332Z,16.67
2022-11-07T07:53:55.501Z,13.73
2022-11-07T07:56:24.608Z,17.98
2022-11-07T07:58:53.714Z,16.10
2022-11-07T08:01:22.965Z,17.98
2022-11-07T08:04:01.172Z,20.08
2022-11-07T08:06:33.364Z,20.27
2022-11-07T08:09:02.824Z,21.00
2022-11-07T08:11:32.082Z,16.00
2022-11-07T08:14:01.877Z,20.42
2022-11-07T08:16:31.425Z,21.13
2022-11-07T08:19:00.544Z,29.30
2022-11-07T08:21:29.741Z,18.52
2022-11-07T08:23:58.939Z,20.85
2022-11-07T08:26:28.335Z,14.90
2022-11-07T08:28:57.740Z,13.38
2022-11-07T08:31:26.897Z,44.33
2022-11-07T08:34:02.390Z,18.75
2022-11-07T08:36:31.780Z,17.42
2022-11-07T08:39:00.906Z,20.00
2022-11-07T08:41:30.510Z,15.02
2022-11-07T08:44:00.126Z,16.08
2022-11-07T08:46:29.330Z,16.55
2022-11-07T08:48:58.510Z,30.98
2022-11-07T08:51:27.651Z,20.70
2022-11-07T08:53:56.781Z,15.75
2022-11-07T08:56:25.973Z,16.08
2022-11-07T08:58:55.216Z,19.77
2022-11-07T09:01:24.511Z,14.13
2022-11-07T09:03:58.063Z,16.63
2022-11-07T09:06:28.118Z,17.38
2022-11-07T09:08:57.322Z,17.30
2022-11-07T09:11:27.972Z,18.65
2022-11-07T09:13:58.532Z,20.85
2022-11-07T09:16:28.367Z,18.77
2022-11-07T09:18:57.730Z,16.75
2022-11-07T09:21:26.877Z,16.65
2022-11-07T09:23:56.023Z,17.75
2022-11-07T09:26:25.303Z,20.38
2022-11-07T09:29:00.026Z,23.73
2022-11-07T09:31:30.547Z,23.80
2022-11-07T09:33:59.725Z,28.98
2022-11-07T09:36:28.998Z,20.48
2022-11-07T09:39:00.159Z,18.95
2022-11-07T09:41:48.611Z,21.58
2022-11-07T09:44:56.897Z,22.30
2022-11-07T09:47:42.873Z,24.17
2022-11-07T09:50:36.044Z,34.75
2022-11-07T09:53:37.868Z,25.25
2022-11-07T09:56:11.952Z,22.85
2022-11-07T09:58:55.686Z,26.77
2022-11-07T10:01:25.841Z,24.85
2022-11-07T10:07:10.186Z,25.77
2022-11-07T10:10:04.975Z,22.45
2022-11-07T10:12:59.721Z,46.78
2022-11-07T10:16:04.091Z,46.80
2022-11-07T10:18:39.113Z,43.97
2022-11-07T10:21:36.658Z,54.75
2022-11-07T10:24:27.089Z,52.95
2022-11-07T10:26:59.257Z,42.50
2022-11-07T10:29:49.738Z,45.25
2022-11-07T10:32:40.956Z,44.47
2022-11-07T10:35:43.007Z,36.67
2022-11-07T10:38:31.234Z,38.80
2022-11-07T10:41:00.482Z,27.05
2022-11-07T10:43:43.699Z,45.88
2022-11-07T10:46:39.445Z,39.15
2022-11-07T10:49:30.211Z,44.42
2022-11-07T10:52:11.946Z,37.05
2022-11-07T10:54:41.226Z,33.53
2022-11-07T10:57:19.018Z,29.30
2022-11-07T10:59:55.070Z,29.25
2022-11-07T11:02:42.131Z,27.13
2022-11-07T11:05:26.684Z,39.70
2022-11-07T11:07:59.004Z,31.17
2022-11-07T11:10:32.523Z,32.78
2022-11-07T11:13:01.663Z,33.78
2022-11-07T11:15:35.701Z,37.45
2022-11-07T11:18:08.508Z,28.90
2022-11-07T11:21:07.759Z,43.10
2022-11-07T11:23:45.364Z,54.13
2022-11-07T11:26:36.099Z,65.88
2022-11-07T11:29:21.764Z,49.05
2022-11-07T11:31:56.033Z,57.60
2022-11-07T11:35:09.561Z,44.78
2022-11-07T11:37:45.068Z,52.95
2022-11-07T11:40:23.879Z,51.90
2022-11-07T11:43:18.916Z,33.95
2022-11-07T11:46:15.924Z,37.30
2022-11-07T11:49:42.432Z,33.58
2022-11-07T11:52:21.746Z,29.52
2022-11-07T11:54:54.040Z,34.70
2022-11-07T11:58:21.278Z,31.45
2022-11-07T12:04:14.264Z,31.63
2022-11-07T12:06:48.321Z,31.92
2022-11-07T12:09:33.138Z,40.83
2022-11-07T12:12:46.276Z,43.90
2022-11-07T12:15:37.594Z,39.10
2022-11-07T12:18:39.838Z,40.83
2022-11-07T12:21:18.427Z,39.47
2022-11-07T12:24:11.388Z,46.83
2022-11-07T12:26:57.726Z,38.95
2022-11-07T12:30:10.795Z,36.25
2022-11-07T12:32:49.578Z,38.80
2022-11-07T12:35:47.477Z,30.80
2022-11-07T12:38:49.970Z,35.17
2022-11-07T12:41:46.706Z,28.08
2022-11-07T12:44:56.803Z,47.30
2022-11-07T12:48:42.628Z,38.10
2022-11-07T12:51:26.966Z,37.83
2022-11-07T12:54:35.138Z,45.63
2022-11-07T12:57:24.542Z,37.15
2022-11-07T13:00:09.161Z,34.95
2022-11-07T13:03:15.282Z,40.22
2022-11-07T13:06:37.770Z,37.42
2022-11-07T13:10:00.973Z,46.17
2022-11-07T13:13:00.280Z,44.20
2022-11-07T13:15:42.192Z,56.13
2022-11-07T13:18:29.649Z,42.65
2022-11-07T13:21:07.827Z,42.83
2022-11-07T13:23:36.980Z,43.95
2022-11-07T13:26:26.254Z,40.88
2022-11-07T13:29:03.498Z,50.00
2022-11-07T13:31:43.560Z,40.17
2022-11-07T13:34:21.537Z,51.83
2022-11-07T13:36:54.909Z,40.97
2022-11-07T13:39:25.981Z,45.08
2022-11-07T13:41:55.678Z,49.70
2022-11-07T13:44:39.691Z,45.10
2022-11-07T13:47:17.549Z,38.20
2022-11-07T13:49:50.503Z,37.13
2022-11-07T13:52:50.327Z,43.88
2022-11-07T13:55:29.057Z,43.35
2022-11-07T13:58:14.133Z,46.35
2022-11-07T14:00:43.398Z,51.63
2022-11-07T14:03:32.109Z,44.88
2022-11-07T14:06:01.268Z,44.47
2022-11-07T14:08:39.926Z,47.65
2022-11-07T14:11:22.547Z,38.35
2022-11-07T14:13:55.815Z,44.95
2022-11-07T14:16:32.071Z,48.75
2022-11-07T14:19:15.707Z,40.63
2022-11-07T14:21:48.192Z,38.92
2022-11-07T14:24:35.854Z,44.63
2022-11-07T14:27:15.585Z,37.00
2022-11-07T14:30:02.622Z,37.40
2022-11-07T14:32:32.290Z,47.92
2022-11-07T14:35:02.113Z,52.72
2022-11-07T14:37:36.100Z,44.88
2022-11-07T14:40:07.306Z,40.72
2022-11-07T14:42:36.930Z,37.78
2022-11-07T14:45:09.143Z,42.67
2022-11-07T14:47:38.437Z,36.50
2022-11-07T14:50:08.677Z,46.13
2022-11-07T14:52:53.091Z,37.30
2022-11-07T14:55:50.703Z,29.63
2022-11-07T14:58:29.067Z,34.55
2022-11-07T15:01:15.315Z,37.72
2022-11-07T15:04:17.158Z,34.58
2022-11-07T15:06:47.376Z,34.53
2022-11-07T15:09:16.750Z,36.50
2022-11-07T15:11:59.527Z,35.78
2022-11-07T15:14:38.568Z,35.85
2022-11-07T15:17:08.470Z,38.92
2022-11-07T15:19:40.784Z,37.90
2022-11-07T15:22:33.413Z,42.65
2022-11-07T15:25:02.523Z,37.50
2022-11-07T15:27:45.172Z,43.60
2022-11-07T15:30:35.976Z,35.65
2022-11-07T15:33:07.846Z,40.53
2022-11-07T15:35:44.075Z,41.20
2022-11-07T15:38:27.522Z,38.28
2022-11-07T15:40:56.895Z,42.63
2022-11-07T15:43:26.711Z,39.92
2022-11-07T15:45:57.575Z,38.88
2022-11-07T15:48:40.933Z,38.33
2022-11-07T15:51:11.151Z,50.70
2022-11-07T15:53:40.540Z,43.75
2022-11-07T15:56:15.717Z,34.08
2022-11-07T15:58:45.060Z,31.58
2022-11-07T16:01:14.620Z,40.90
2022-11-07T16:03:43.786Z,31.65
2022-11-07T16:06:33.269Z,40.03
2022-11-07T16:09:02.774Z,52.38
2022-11-07T16:11:31.849Z,39.17
2022-11-07T16:14:29.342Z,40.42
2022-11-07T16:16:51.078Z,43.53
2022-11-07T16:19:30.690Z,38.58
2022-11-07T16:21:59.844Z,36.17
2022-11-07T16:24:29.329Z,39.35
2022-11-07T16:26:58.857Z,45.67
2022-11-07T16:29:28.187Z,38.22
2022-11-07T16:31:57.387Z,37.42
2022-11-07T16:34:26.782Z,39.75
2022-11-07T16:36:56.131Z,40.53
2022-11-07T16:39:25.730Z,41.63
2022-11-07T16:41:55.221Z,40.45
2022-11-07T16:44:26.559Z,38.20
2022-11-07T16:46:57.569Z,39.42
2022-11-07T16:49:34.777Z,45.15
2022-11-07T16:52:05.037Z,45.40
2022-11-07T16:54:34.086Z,41.28
2022-11-07T16:57:03.233Z,44.65
2022-11-07T16:59:32.314Z,32.10
2022-11-07T17:02:01.590Z,33.58
2022-11-07T17:04:31.012Z,35.25
2022-11-07T17:07:00.209Z,34.03
2022-11-07T17:09:29.339Z,40.63
2022-11-07T17:11:58.377Z,32.90
2022-11-07T17:14:27.465Z,37.25
2022-11-07T17:16:56.585Z,33.65
2022-11-07T17:19:28.500Z,33.88
2022-11-07T17:21:57.678Z,30.50
2022-11-07T17:24:26.772Z,30.65
2022-11-07T17:26:56.114Z,32.38
2022-11-07T17:29:25.479Z,30.70
2022-11-07T17:31:54.721Z,31.23
2022-11-07T17:34:23.890Z,34.53
2022-11-07T17:36:54.465Z,32.42
2022-11-07T17:39:24.114Z,29.45
2022-11-07T17:41:54.463Z,33.47
2022-11-07T17:44:23.630Z,32.22
2022-11-07T17:46:52.978Z,30.10
2022-11-07T17:49:22.985Z,30.17
2022-11-07T17:51:55.094Z,30.65
2022-11-07T17:54:29.299Z,28.95
2022-11-07T17:56:59.031Z,34.33
2022-11-07T17:59:29.564Z,33.17
2022-11-07T18:01:58.747Z,31.33
2022-11-07T18:04:28.059Z,30.52
2022-11-07T18:06:57.214Z,32.45
2022-11-07T18:09:26.955Z,27.63
2022-11-07T18:11:56.045Z,29.77
2022-11-07T18:14:26.031Z,29.90
2022-11-07T18:16:55.359Z,30.63
2022-11-07T18:19:24.461Z,39.58
2022-11-07T18:21:53.800Z,28.98
2022-11-07T18:24:23.686Z,32.10
2022-11-07T18:26:53.686Z,31.38
2022-11-07T18:29:22.816Z,42.65
2022-11-07T18:31:52.802Z,34.33
2022-11-07T18:34:21.901Z,26.45
2022-11-07T18:36:50.968Z,33.63
2022-11-07T18:39:24.362Z,31.38
2022-11-07T18:41:57.738Z,29.10
2022-11-07T18:44:27.057Z,29.85
2022-11-07T18:46:56.209Z,29.00
2022-11-07T18:49:25.797Z,30.65
2022-11-07T18:51:55.049Z,30.52
2022-11-07T18:54:24.972Z,27.50
2022-11-07T18:56:54.240Z,29.05
2022-11-07T18:59:23.481Z,27.77
2022-11-07T19:01:52.694Z,29.42
2022-11-07T19:04:21.977Z,26.60
2022-11-07T19:06:57.941Z,27.50
2022-11-07T19:09:33.412Z,25.27
2022-11-07T19:12:03.205Z,27.73
2022-11-07T19:14:33.336Z,28.05
2022-11-07T19:17:02.540Z,29.73
2022-11-07T19:19:31.780Z,24.20
2022-11-07T19:22:00.948Z,26.17
2022-11-07T19:24:30.125Z,25.38
2022-11-07T19:27:01.289Z,37.08
2022-11-07T19:29:30.642Z,26.77
2022-11-07T19:31:59.840Z,26.65
2022-11-07T19:34:29.129Z,27.45
2022-11-07T19:36:58.268Z,26.77
2022-11-07T19:39:28.795Z,27.10
2022-11-07T19:41:58.223Z,24.88
2022-11-07T19:44:27.871Z,26.00
2022-11-07T19:46:57.014Z,24.70
2022-11-07T19:49:26.218Z,23.40
2022-11-07T19:51:56.544Z,22.63
2022-11-07T19:54:25.962Z,26.40
2022-11-07T19:56:57.594Z,25.17
2022-11-07T19:59:27.207Z,21.35
2022-11-07T20:02:18.300Z,20.73
2022-11-07T20:04:45.590Z,20.67
2022-11-07T20:07:16.476Z,24.55
2022-11-07T20:09:46.501Z,26.25
2022-11-07T20:12:15.866Z,21.27
2022-11-07T20:14:45.117Z,21.15
2022-11-07T20:17:14.410Z,23.33
2022-11-07T20:19:43.546Z,20.58
2022-11-07T20:22:14.440Z,24.70
2022-11-07T20:24:43.577Z,22.63
2022-11-07T20:27:12.805Z,23.70
2022-11-07T20:29:41.955Z,20.08
2022-11-07T20:32:12.771Z,23.17
2022-11-07T20:34:41.885Z,20.48
2022-11-07T20:37:11.249Z,22.45
2022-11-07T20:39:43.453Z,20.10
2022-11-07T20:42:13.240Z,21.27
2022-11-07T20:44:45.598Z,23.40
2022-11-07T20:47:15.126Z,21.00
2022-11-07T20:49:44.300Z,19.63
2022-11-07T20:52:13.417Z,21.80
2022-11-07T20:54:42.616Z,25.50
2022-11-07T20:57:11.671Z,23.23
2022-11-07T20:59:42.223Z,36.08
2022-11-07T21:02:15.470Z,22.65
2022-11-07T21:05:11.285Z,23.13
2022-11-07T21:07:33.705Z,24.42
2022-11-07T21:10:02.772Z,27.88
2022-11-07T21:12:31.883Z,21.05
2022-11-07T21:15:00.907Z,23.20
2022-11-07T21:17:30.069Z,23.35
2022-11-07T21:19:59.251Z,23.98
2022-11-07T21:22:29.672Z,22.40
2022-11-07T21:24:59.561Z,25.45
2022-11-07T21:27:28.649Z,24.20
2022-11-07T21:29:57.942Z,27.55
2022-11-07T21:32:26.993Z,25.02
2022-11-07T21:34:57.095Z,20.52
2022-11-07T21:37:26.122Z,29.95
2022-11-07T21:39:55.146Z,22.73
2022-11-07T21:42:24.384Z,25.63
2022-11-07T21:44:53.536Z,22.83
2022-11-07T21:47:22.587Z,31.45
2022-11-07T21:49:51.693Z,30.02
2022-11-07T21:52:20.831Z,28.70
2022-11-07T21:54:51.268Z,24.38
2022-11-07T21:57:21.164Z,22.65
2022-11-07T21:59:50.790Z,22.15
2022-11-07T22:02:21.405Z,21.27
2022-11-07T22:04:51.245Z,24.17
2022-11-07T22:07:20.896Z,28.60
2022-11-07T22:09:50.649Z,18.10
2022-11-07T22:12:20.256Z,19.60
2022-11-07T22:14:50.668Z,24.65
2022-11-07T22:17:20.453Z,19.38
2022-11-07T22:19:51.231Z,19.85
2022-11-07T22:22:22.029Z,19.85
2022-11-07T22:24:51.075Z,19.55
2022-11-07T22:27:20.131Z,19.55
2022-11-07T22:29:49.263Z,21.55
2022-11-07T22:32:18.375Z,22.27
2022-11-07T22:34:47.427Z,23.50
2022-11-07T22:37:16.471Z,20.50
2022-11-07T22:39:45.560Z,23.13
2022-11-07T22:42:17.395Z,23.65
2022-11-07T22:44:50.144Z,22.42
2022-11-07T22:47:19.250Z,24.90
2022-11-07T22:49:48.321Z,26.20
2022-11-07T22:52:17.409Z,22.27
2022-11-07T22:54:46.697Z,29.00
2022-11-07T22:57:17.915Z,30.27
2022-11-07T22:59:47.304Z,31.77
2022-11-07T23:02:16.541Z,27.52
2022-11-07T23:04:45.692Z,32.72
2022-11-07T23:07:14.754Z,35.92
2022-11-07T23:09:43.839Z,33.05
2022-11-07T23:12:12.959Z,38.17
2022-11-07T23:14:42.058Z,35.40
2022-11-07T23:17:11.197Z,34.15
2022-11-07T23:19:40.264Z,40.50
2022-11-07T23:22:09.361Z,36.58
2022-11-07T23:24:39.265Z,33.15
2022-11-07T23:27:10.008Z,49.80
2022-11-07T23:29:39.108Z,35.17
2022-11-07T23:32:08.207Z,38.75
2022-11-07T23:34:37.632Z,32.95
2022-11-07T23:37:18.886Z,37.70
2022-11-07T23:39:48.045Z,53.53
2022-11-07T23:42:18.273Z,72.55
2022-11-07T23:45:11.211Z,53.33
2022-11-07T23:48:03.396Z,44.25
2022-11-07T23:50:50.737Z,68.00
2022-11-07T23:53:39.935Z,40.63
2022-11-07T23:56:09.917Z,51.80
2022-11-07T23:58:57.192Z,52.03
